Santa Barbara Municipal Airport

Airport
ICAO code: 
KSBA
Summary
ICAO Region: 
NAM
Territory: 
Location: 
Santa Barbara, California,
Coordinates: 
Aerial View: 
34° 25' 36.464" N, 119° 50' 29.295" W
Airport LOS: 
Parallel Runway Operation
Metar
Observation
KSBA 040553Z 05008KT 10SM OVC013 12/09 A3011 RMK AO2 SLP197 T01220089 10133 20122 53008
Station
Santa Barbara, Santa Barbara Municipal Airport
Date/Time
2021-12-04 05:53:00
Wind direction
50°
Wind speed
08 kts
Lowest cloud amount
overcast
Temperature
12.2°C
Dew point
8.9°C
Humidity
80%
Weather condition
n/a

Description

Santa Barbara Municipal Airport is a public airport located 11 km west of downtown Santa Barbara, California.

Climatology

Warm Mediterranean climate (Köppen climate classification Csb). Because of the airport's proximity to the ocean, onshore breezes significantly moderate temperatures, resulting in warmer winters and cooler summers compared with places farther inland.

Runways

Designator Length Width Surface Rops
15L/33R 1274 23 ASP Yes/Yes
15R/33L 1275 30 ASP Yes/Yes
7/25 1845 46 ASP Yes/Yes
Airport map: 
Aerial View: 

SKYbrary Partners:

Safety knowledge contributed by: